Situs API Video Gratis Terbaik

AVDBAPI.COM

Cari katalog, periksa data, dan salin URL API bersih dari satu dasbor cepat.

Telegram Gabung komunitas Telegram untuk update!
Today
30
Pembaruan Hari Ini
Censored
314171
Video Disensor
Total
474382
Total Video

Daftar Video

Data terbaru diurutkan berdasarkan waktu pembaruan.

ID Nama CODE Kategori Diperbarui API
266023 C0930-KI201224 Riho Tamba, Wanita 30 Tahun C0930-KI201224 Tanpa sensor 2025-08-29 06:55:30 API
266022 FC2-PPV-4472110 Piyama Seksi: Gadis Mungil yang Imut dan Ceria, Sangat Menggemaskan FC2-PPV-4472110 Tanpa sensor 2025-08-29 06:55:20 API
266021 103120_02 Festival Mansho Mengubah Si Kelinci Seksi Menjadi Pelacur 103120_02 Tanpa sensor 2025-08-29 06:55:10 API
266020 H0930-KI210520 Kayo Mizumori, 31 Tahun H0930-KI210520 Tanpa sensor 2025-08-29 06:55:00 API
266019 040415-166 Jika Kamu Kuat Menahan Seks Yui Hatano, Ikuti Pesta Apresiasi Fans dengan Cumshot di Dalam Vagina 040415-166 Tanpa sensor 2025-08-29 06:54:50 API
266018 110519_924 Sujikko Club 110519_924 Tanpa sensor 2025-08-29 06:54:40 API
266017 052521-001 Pesta Orgy Creampie ~ Duel Kontol Dua Cewek Cabul! ~ Eri Hoshikawa, Maki Kawano 052521-001 Tanpa sensor 2025-08-29 06:54:30 API
266016 KB1499 Team Kimura Edisi Spesial - KB1499 Tanpa sensor 2025-08-29 06:54:20 API
266015 H4610-KI220201 Shion Iwaki Gadis Hot 21 Tahun H4610-KI220201 Tanpa sensor 2025-08-29 06:54:10 API
266014 C0930-HITOZUMA1342 Nanna Tokutaka Wanita Cantik 27 Tahun C0930-HITOZUMA1342 Tanpa sensor 2025-08-29 06:54:00 API
266013 031020-267 Tante Seksi ~ Sangat Dicintai Oleh Mantan Istri Yang di Lingkungan Ini! ~ 031020-267 Tanpa sensor 2025-08-29 06:53:50 API
266012 103120-01 Amatir menggoda yang menyebarkan feromon pemikat yang liar 103120-01 Tanpa sensor 2025-08-29 06:53:40 API
266011 FC2-PPV-4483845 Blowjob dan Creampie Berlumuran Sperma 3D FC2-PPV-4483845 Tanpa sensor 2025-08-29 06:53:30 API
266009 H0930-ORI1602 Riyo Igai, Wanita Cantik 31 Tahun H0930-ORI1602 Tanpa sensor 2025-08-29 06:53:10 API
266008 HEYZO-2509 Pengantin Cantik Berbody Seksi Sedang Ngentot Sama Abang Gue HEYZO-2509 Tanpa sensor 2025-08-29 06:53:00 API
266007 SKY-156 Sky Angel Vol.106: Yuzu Shiina SKY-156 Tanpa sensor 2025-08-29 06:52:50 API
266006 041615-175 Balas Dendam di Kamar Suite ~ Mao Sena, Sang Resepsionis ~ 041615-175 Tanpa sensor 2025-08-29 06:52:40 API
266005 H-220201 - Ki220201 Shion Iwaki Gadis 21 Tahun H-220201 Tanpa sensor 2025-08-29 06:52:30 API
266004 C0930-KI201226 Video Selfie Masturbasi yang Menggairahkan C0930-KI201226 Tanpa sensor 2025-08-29 06:52:20 API
266003 031220-268 Cumshot ke dalam vagina istri berseragam pelaut tanpa ampun di akhir bulan 031220-268 Tanpa sensor 2025-08-29 06:52:10 API
266002 052621-001 Antologi Istri-Istri Gatal: Ai Uehara, Misuzu Tachibana, Akari Niiyama, Nozomi Haneda, Mirai Fujii 052621-001 Tanpa sensor 2025-08-29 06:52:00 API
266001 110919_926 Jalang Yui Shinshiro 110919_926 Tanpa sensor 2025-08-29 06:51:50 API
266000 H0930-KI210523 Mao Fujiwara Wanita 28 Tahun H0930-KI210523 Tanpa sensor 2025-08-29 06:51:40 API
265999 110320-01 Aku merekam video gonzo pacarku pakai kamera terbaru, ayo tonton aksi panasnya 110320-01 Tanpa sensor 2025-08-29 06:51:30 API
265998 HEYZO-2510 Tanpa Henti!! Surga Kenikmatan - Aku ingin kamu menyetubuhiku lagi dan lagi - HEYZO-2510 Tanpa sensor 2025-08-29 06:51:20 API
265997 CARIBBEANCOMPR-042415_186 Parade Urinasi ~ Ejakulasi Terlambat dan Ejakulasi Dini CARIBBEANCOMPR-042415_186 Tanpa sensor 2025-08-29 06:51:10 API
265996 C0930-KI201227 Nakaji Kaneko Wanita Seksi 32 Tahun C0930-KI201227 Tanpa sensor 2025-08-29 06:51:00 API
265995 SKY-168 Sky Angel Vol.113: Rei Sasaki SKY-168 Tanpa sensor 2025-08-29 06:50:50 API
265994 H4610-KI220203 Sayaka Ishida, Wanita 26 Tahun H4610-KI220203 Tanpa sensor 2025-08-29 06:50:40 API
265993 H0930-KI210525 Wanita Seksi 30 Tahun Kayoko Sahara H0930-KI210525 Tanpa sensor 2025-08-29 06:50:30 API
265992 031420-269 Menelan Sperma Istri Orang 103 ~ Wanita Matang Cantik yang Wajahnya Biasa Saja Tapi Punya Vagina yang Sangat Kotor ~ 031420-269 Tanpa sensor 2025-08-29 06:50:20 API
265991 111219 1119_927 Pakai Kacamata Hitam, Hina Shirayama Disetubuhi Raw Gaya Saddle 111219_927 Tanpa sensor 2025-08-29 06:50:10 API
265990 HEYZO-2511 Nafsu Berahi Sang Janda Vol.3 HEYZO-2511 Tanpa sensor 2025-08-29 06:50:00 API
265989 052721-001 Buku Foto Memek Eri Saeki 052721-001 Tanpa sensor 2025-08-29 06:49:50 API
265988 042315-181 S Model 127: 12 Aktris Terpopuler Sepanjang Sejarah, 3 Jam Ecstasy DX yang Gila 042315-181 Tanpa sensor 2025-08-29 06:49:40 API
265987 110420-01 Ngentot Brutal Cewek Rapi yang Cantik Banget 110420-01 Tanpa sensor 2025-08-29 06:49:30 API
265986 FC2-PPV-4475994 Baru datang 4/7, terbatas hanya 980 poin! *Belum diperiksa/difilmkan FC2-PPV-4475994 Tanpa sensor 2025-08-29 06:49:20 API
265985 C0930-KI201228 Orgy Amatir Penuh Nafsu C0930-KI201228 Tanpa sensor 2025-08-29 06:49:10 API
265984 H0930-KI210527 Akemi Hyodo, 30 Tahun H0930-KI210527 Tanpa sensor 2025-08-29 06:49:00 API
265983 031720-270 Perasaan seorang istri saat melihat aksi Sensuri dari jarak dekat 031720-270 Tanpa sensor 2025-08-29 06:48:50 API
265982 111419_928 Tokimeki ~ Pacarku yang haus akan kontol ~ 111419_928 Tanpa sensor 2025-08-29 06:48:40 API
265979 HEYZO-2512 Makan pie bareng Miya Izumi yuk! HEYZO-2512 Tanpa sensor 2025-08-29 06:48:10 API
265978 H0930-KI210529 Tomoe Sugita Wanita Matang 40 Tahun H0930-KI210529 Tanpa sensor 2025-08-29 06:48:00 API
265977 FC2-PPV-4483846 Live Hari Ke-3 Cuma 990 Poin!!! "Kamu Suka Pakai Stocking? FC2-PPV-4483846 Tanpa sensor 2025-08-29 06:47:50 API
265976 052821-001 Aku Pakai Tubuhku Untuk Membuat OL Bagian Komplain Meminta Maaf! Vol.7 Sakura Kojima 052821-001 Tanpa sensor 2025-08-29 06:47:40 API
265975 042415-186 Departemen Urologi Tempat Antre - Ejakulasi Terlambat dan Ejakulasi Dini - Bonus Moshi 042415-186 Tanpa sensor 2025-08-29 06:47:30 API
265974 H4610-KI220208 Hikaru Komori Gadis 18 Tahun yang Menggoda H4610-KI220208 Tanpa sensor 2025-08-29 06:47:20 API
265973 HEYZO-2525 Creampie lagi sama si pirang nenen gede # Sophia 3 HEYZO-2525 Tanpa sensor 2025-08-29 06:47:10 API
265972 110520-01 Cewek frustrasi yang terus menggeliat kegirangan 110520-01 Tanpa sensor 2025-08-29 06:47:00 API
265971 KB1500 Team Kimura Edisi Spesial - KB1500 Tanpa sensor 2025-08-29 06:46:50 API